Боухантеры.ру

Информация о пользователе

Привет, Гость! Войдите или зарегистрируйтесь.


Вы здесь » Боухантеры.ру » Снаряжение боухантера


Снаряжение боухантера

Тем 271 страница 296 из 296

Тема Ответов Просмотров Последнее сообщение
3 144 2020-01-29 13:35:40  Bowhunterinfo
272 Обмотка троса  Владимир
4 99 2020-01-25 21:50:51  Владимир
273 Как собрать охотничью стрелу  Александр Курашёв
16 537 2020-01-22 19:27:31  Bowhunterinfo
5 162 2020-01-20 13:10:26  Bows
275 Как не мерзнуть на дереве???  Тот Самый Олег
49 402 2020-01-20 11:58:32  Юджин
276 Наконечник Бишоп  Тот Самый Олег
2 76 2020-01-20 03:22:57  Тот Самый Олег
41 562 2020-01-17 23:42:20  РобинГад
9 174 2020-01-16 22:54:36  Юджин
279 Сброс  exc3lent
18 214 2020-01-14 08:57:49  Вован
6 170 2020-01-12 20:13:44  Тот Самый Олег
281 АТА шоу 2020  Александр Курашёв
15 208 2020-01-12 08:46:48  Черкасов
12 198 2020-01-11 08:45:15  iBolit66
283 Broadhead tuning  Тот Самый Олег
14 360 2020-01-10 00:20:07  Bows
284 Перчатки Sitka Ascent Glove - мой опыт  Александр Курашёв
3 82 2020-01-07 00:47:27  Pavel
3 133 2019-12-31 17:13:50  Юджин
286 Про АТА арбалета  Владимир
13 229 2019-12-29 10:28:55  Владимир
2 118 2019-12-27 23:26:46  Bows
1 59 2019-12-27 21:56:10  Александр Курашёв
289 Valkyrie наконечник валькирия  Тот Самый Олег
6 191 2019-12-25 17:04:56  Тот Самый Олег
15 1409 2019-12-25 03:29:13  Тот Самый Олег
291 RMSG CUTTHROAT BROADHEAD  Тот Самый Олег
9 162 2019-12-24 23:00:04  Тот Самый Олег
292 German Kinetics  Тот Самый Олег
3 170 2019-12-24 16:33:33  Юджин
293 Модный вискербискет  Тот Самый Олег
2 105 2019-12-23 05:16:53  Тот Самый Олег
2 67 2019-12-23 01:18:48  Александр Курашёв
295 Опрос: Что бы вы хотели увидеть на АТА Шоу 2020?  Александр Курашёв
4 118 2019-12-22 12:44:30  Sanarcher
3 246 2019-12-20 23:07:42  ОлегычЪ

Вы здесь » Боухантеры.ру » Снаряжение боухантера